DW4748 Centreville VA US current weather conditions

sailwx.info

Wind from 269 at 1 knots gusting 5

Air temperature 5.6° C
Dewpoint -4.6° C

Last reported at 2020-Jan-28 23:01 UTC.
Time now 2020-Jan-28 23:21 UTC

Location: N 38°50' W 077°25'.
View on Google Maps.

See reports from other nearby stations

  
Tides and Currents Weather Stations Pressure Air Temp Water Temp Dewpoint Dewpoint Depression Visibility Wind Speed Wind Dir Waves Ship Positions
date/time (UTC)wind fromknots sea level pressurealtimeterstation pressurevisibilityair tempwater tempwave heightnotes
2020-Jan-28 23:01 269 1 gusting 5 5.6
2020-Jan-28 22:31 281 0 gusting 4 5.6
2020-Jan-28 22:18 014 1 gusting 10 5.6
2020-Jan-28 22:02 037 3 gusting 8 6.1
2020-Jan-28 21:46 285 0 gusting 7 6.1
2020-Jan-28 21:30 304 4 gusting 13 6.1
2020-Jan-28 21:17 251 2 gusting 10 6.7
2020-Jan-28 21:00 283 2 gusting 6 6.7
2020-Jan-28 20:31 252 2 gusting 10 6.7
2020-Jan-28 20:15 276 0 gusting 9 6.7
2020-Jan-28 20:02 212 1 gusting 6 6.7
2020-Jan-28 19:45 294 1 gusting 8 6.7
2020-Jan-28 19:31 187 3 gusting 12 6.1
2020-Jan-28 19:16 303 1 gusting 6 6.1
2020-Jan-28 19:00 043 0 gusting 6 6.7
2020-Jan-28 18:47 278 1 gusting 6 6.1
2020-Jan-28 18:30 275 1 gusting 6 6.1
2020-Jan-28 18:17 274 1 gusting 5 6.1
2020-Jan-28 17:45 299 0 gusting 5 5.6
2020-Jan-28 17:35 304 0 gusting 5 5.6
2020-Jan-28 17:15 318 0 gusting 6 5.6
2020-Jan-28 17:00 269 0 gusting 7 5.6
2020-Jan-28 16:47 292 1 gusting 7 5.6
2020-Jan-28 16:30 192 1 gusting 7 5.6
2020-Jan-28 16:15 232 1 gusting 6 6.1
2020-Jan-28 16:00 283 1 gusting 9 5.6
2020-Jan-28 15:45 292 0 gusting 6 5.6
2020-Jan-28 15:31 290 2 gusting 9 5.6
2020-Jan-28 15:15 338 3 gusting 9 5.6
2020-Jan-28 15:02 314 3 gusting 9 5.6
2020-Jan-28 14:46 302 1 gusting 7 5.6
2020-Jan-28 14:30 302 1 gusting 5 5.0
2020-Jan-28 14:16 296 5.0
2020-Jan-28 14:00 308 1 gusting 5 4.4
2020-Jan-28 13:46 306 3.9
2020-Jan-28 13:31 304 0 gusting 4 3.9
2020-Jan-28 13:16 282 3.3
2020-Jan-28 13:01 279 3.3
2020-Jan-28 12:48 252 1 gusting 5 3.3
2020-Jan-28 12:31 268 3.3
2020-Jan-28 12:15 277 1 gusting 5 3.3
2020-Jan-28 12:01 333 0 gusting 4 3.3
2020-Jan-28 11:45 319 0 gusting 4 3.3
2020-Jan-28 11:31 274 0 gusting 4 3.3
2020-Jan-28 11:16 263 1 gusting 6 3.3
2020-Jan-28 11:02 288 0 gusting 3 3.3
2020-Jan-28 10:46 302 3.3
2020-Jan-28 10:15 300 0 gusting 6 3.3
2020-Jan-28 10:01 323 0 gusting 5 3.3
2020-Jan-28 09:45 301 0 gusting 7 3.3
2020-Jan-28 09:32 333 1 gusting 6 3.3
2020-Jan-28 09:15 314 3.3
2020-Jan-28 09:01 289 0 gusting 5 3.3
2020-Jan-28 08:45 302 0 gusting 6 3.3
2020-Jan-28 08:33 273 3.3
2020-Jan-28 08:15 280 3.3
2020-Jan-28 08:02 288 1 gusting 4 3.9
2020-Jan-28 07:45 316 3.9
2020-Jan-28 07:32 304 0 gusting 6 3.9
2020-Jan-28 07:15 297 1 gusting 6 3.9
2020-Jan-28 07:03 297 2 gusting 6 3.9
2020-Jan-28 06:46 297 0 gusting 5 3.9
2020-Jan-28 06:30 284 0 gusting 7 3.9
2020-Jan-28 06:16 297 0 gusting 6 3.9
2020-Jan-28 06:00 297 1 gusting 5 3.9
2020-Jan-28 05:46 303 0 gusting 4 3.9
2020-Jan-28 05:30 290 3.9
2020-Jan-28 05:17 314 0 gusting 2 3.9
2020-Jan-28 05:00 296 3.9
2020-Jan-28 04:48 288 3.9
2020-Jan-28 04:30 291 0 gusting 4 4.4
2020-Jan-28 04:18 279 0 gusting 3 4.4
2020-Jan-28 04:00 286 4.4
2020-Jan-28 03:45 307 4.4
2020-Jan-28 03:31 313 4.4
2020-Jan-28 03:15 297 4.4
2020-Jan-28 02:47 295 4.4
2020-Jan-28 02:30 310 4.4
2020-Jan-28 02:01 284 4.4
2020-Jan-28 01:45 290 4.4
2020-Jan-28 01:32 297 1 gusting 7 4.4
2020-Jan-28 01:15 291 4.4
2020-Jan-28 01:00 278 0 gusting 5 4.4
2020-Jan-28 00:48 316 0 gusting 4 4.4
2020-Jan-28 00:32 313 0 gusting 5 5.0
2020-Jan-28 00:15 300 0 gusting 5 5.0
2020-Jan-28 00:00 292 2 gusting 6 5.6
2020-Jan-27 23:46 323 1 gusting 9 5.6
2020-Jan-27 23:30 332 1 gusting 8 5.6
2020-Jan-27 23:15 275 0 gusting 6 5.6
2020-Jan-27 23:01 344 1 gusting 6 6.1
2020-Jan-27 22:46 296 1 gusting 6 6.1
2020-Jan-27 22:30 314 0 gusting 9 6.1
2020-Jan-27 22:02 339 1 gusting 8 6.7
2020-Jan-27 21:46 278 2 gusting 6 7.2
2020-Jan-27 21:30 285 2 gusting 8 7.2
2020-Jan-27 21:16 270 1 gusting 6 7.2
2020-Jan-27 21:01 305 2 gusting 7 7.8
2020-Jan-27 20:46 298 2 gusting 8 7.8
2020-Jan-27 20:32 307 2 gusting 9 7.8
2020-Jan-27 20:15 297 2 gusting 5 8.3
2020-Jan-27 20:00 293 2 gusting 8 8.3
2020-Jan-27 19:46 302 3 gusting 9 8.9
2020-Jan-27 19:31 311 0 gusting 4 8.9
2020-Jan-27 19:15 326 0 gusting 5 8.3
2020-Jan-27 19:00 279 0 gusting 6 8.3
2020-Jan-27 18:46 285 2 gusting 6 8.3
2020-Jan-27 18:15 293 0 gusting 6 8.3
2020-Jan-27 18:02 278 1 gusting 6 8.3
2020-Jan-27 17:47 305 7.8
2020-Jan-27 17:30 309 8.3
2020-Jan-27 17:15 151 0 gusting 5 8.3
2020-Jan-27 17:01 262 0 gusting 4 8.3
2020-Jan-27 16:46 258 0 gusting 4 8.3
2020-Jan-27 16:30 184 1 gusting 4 7.8
2020-Jan-27 16:16 173 0 gusting 4 7.2
2020-Jan-27 16:01 156 6.1
2020-Jan-27 15:45 161 5.6
2020-Jan-27 15:30 161 0 gusting 2 5.0
2020-Jan-27 15:17 179 0 gusting 3 4.4
2020-Jan-27 15:00 200 3.9
2020-Jan-27 14:45 173 0 gusting 2 3.3
2020-Jan-27 14:33 163 0 gusting 2 2.8
2020-Jan-27 14:16 191 2.2
2020-Jan-27 14:01 156 1.7
2020-Jan-27 13:45 179 1.1
2020-Jan-27 13:32 178 1.1
2020-Jan-27 13:15 166 0.6
2020-Jan-27 13:00 175 0 gusting 1 0.6
2020-Jan-27 12:46 155 -0.0
2020-Jan-27 12:31 154 0.6
2020-Jan-27 12:18 169 0.6
2020-Jan-27 12:01 165 -0.0
2020-Jan-27 11:45 172 -0.0
2020-Jan-27 11:31 153 -0.0
2020-Jan-27 11:16 165 -0.0
2020-Jan-27 11:00 171 -0.0
2020-Jan-27 10:48 177 -0.0
2020-Jan-27 10:30 147 -0.0
2020-Jan-27 10:15 167 -0.6
2020-Jan-27 10:03 163 -1.1
2020-Jan-27 09:46 164 -1.1
2020-Jan-27 09:31 164 -1.7
2020-Jan-27 09:15 164 -1.7
2020-Jan-27 09:02 164 -1.7
2020-Jan-27 08:46 164 -1.1
2020-Jan-27 08:31 164 -1.1
2020-Jan-27 08:15 164 -0.6
2020-Jan-27 08:02 164 -0.6
2020-Jan-27 07:48 164 -0.0
2020-Jan-27 07:31 164 -0.0
2020-Jan-27 07:15 164 0.6
2020-Jan-27 07:00 164 1.1
2020-Jan-27 06:46 164 1.1
2020-Jan-27 06:31 164 1.1
2020-Jan-27 06:15 164 1.1
2020-Jan-27 06:00 164 1.1
2020-Jan-27 05:30 188 -0.0
2020-Jan-27 05:17 188 -0.0
2020-Jan-27 05:02 280 -0.0
2020-Jan-27 04:45 280 -0.6
2020-Jan-27 04:31 280 -0.6
2020-Jan-27 04:15 280 -0.0
2020-Jan-27 04:01 280 0.6
2020-Jan-27 03:47 280 1.1
2020-Jan-27 03:30 280 1.7
2020-Jan-27 03:16 280 2.8
2020-Jan-27 03:01 280 3.9
2020-Jan-27 02:46 280 4.4
2020-Jan-27 02:30 280 4.4
2020-Jan-27 02:17 271 4.4
2020-Jan-27 02:00 283 4.4
2020-Jan-27 01:46 293 4.4
2020-Jan-27 01:30 205 4.4
2020-Jan-27 01:16 297 0 gusting 2 5.0
2020-Jan-27 01:01 295 0 gusting 4 5.0
2020-Jan-27 00:46 283 1 gusting 6 5.0
2020-Jan-27 00:31 288 1 gusting 6 5.0
2020-Jan-27 00:02 271 5.6
2020-Jan-26 23:46 281 0 gusting 4 5.6
2020-Jan-26 23:31 283 5.6
2020-Jan-26 23:15 293 0 gusting 3 5.6
2020-Jan-26 23:01 290 6.1